createdAt,value
2018-12-12T00:00:00.481Z,0.00
2018-12-12T00:01:00.497Z,0.00
2018-12-12T00:02:00.511Z,0.00
2018-12-12T00:03:00.523Z,0.00
2018-12-12T00:04:00.536Z,0.00
2018-12-12T00:05:00.537Z,0.00
2018-12-12T00:06:00.550Z,0.00
2018-12-12T00:07:00.564Z,0.00
2018-12-12T00:08:00.590Z,0.00
2018-12-12T00:09:00.591Z,0.00
2018-12-12T00:10:00.604Z,0.00
2018-12-12T00:11:00.618Z,0.00
2018-12-12T00:12:00.620Z,0.00
2018-12-12T00:13:00.632Z,0.00
2018-12-12T00:14:00.646Z,0.00
2018-12-12T00:15:00.659Z,0.00
2018-12-12T00:16:00.675Z,0.00
2018-12-12T00:17:00.687Z,0.00
2018-12-12T00:18:00.705Z,0.00
2018-12-12T00:19:00.705Z,0.00
2018-12-12T00:20:00.715Z,0.00
2018-12-12T00:21:00.729Z,0.00
2018-12-12T00:22:00.742Z,0.00
2018-12-12T00:23:00.759Z,0.00
2018-12-12T00:24:00.769Z,0.00
2018-12-12T00:25:00.784Z,0.00
2018-12-12T00:26:00.784Z,0.00
2018-12-12T00:27:00.797Z,0.00
2018-12-12T00:28:00.811Z,0.00
2018-12-12T00:29:00.825Z,0.00
2018-12-12T00:30:00.838Z,0.00
2018-12-12T00:31:00.865Z,0.00
2018-12-12T00:32:00.866Z,0.00
2018-12-12T00:33:00.867Z,0.00
2018-12-12T00:34:00.879Z,0.00
2018-12-12T00:35:00.895Z,0.00
2018-12-12T00:36:00.907Z,0.00
2018-12-12T00:37:00.920Z,0.00
2018-12-12T00:38:00.935Z,0.00
2018-12-12T00:39:00.936Z,0.00
2018-12-12T00:40:00.949Z,0.00
2018-12-12T00:41:00.962Z,0.00
2018-12-12T00:42:00.975Z,0.00
2018-12-12T00:43:00.988Z,0.00
2018-12-12T00:44:01.003Z,0.00
2018-12-12T00:45:01.015Z,0.00
2018-12-12T00:46:01.030Z,0.00
2018-12-12T00:47:01.032Z,0.00
2018-12-12T00:48:01.044Z,0.00
2018-12-12T00:49:01.058Z,0.00
2018-12-12T00:50:01.075Z,0.00
2018-12-12T00:51:01.086Z,0.00
2018-12-12T00:52:01.104Z,0.00
2018-12-12T00:53:01.118Z,0.00
2018-12-12T00:54:01.115Z,0.00
2018-12-12T00:55:01.126Z,0.00
2018-12-12T00:56:01.146Z,0.00
2018-12-12T00:57:01.156Z,0.00
2018-12-12T00:58:01.172Z,0.00
2018-12-12T00:59:01.180Z,0.00
2018-12-12T01:00:01.182Z,0.00
2018-12-12T01:01:01.200Z,0.00
2018-12-12T01:02:01.209Z,0.00
2018-12-12T01:03:01.227Z,0.00
2018-12-12T01:04:01.235Z,0.00
2018-12-12T01:05:01.254Z,0.00
2018-12-12T01:06:01.275Z,0.00
2018-12-12T01:07:01.264Z,0.00
2018-12-12T01:08:01.277Z,0.00
2018-12-12T01:09:01.291Z,0.00
2018-12-12T01:10:01.304Z,0.00
2018-12-12T01:11:01.317Z,0.00
2018-12-12T01:12:01.333Z,0.00
2018-12-12T01:13:01.345Z,0.00
2018-12-12T01:14:01.346Z,0.00
2018-12-12T01:15:01.359Z,0.00
2018-12-12T01:16:01.373Z,0.00
2018-12-12T01:17:01.387Z,0.00
2018-12-12T01:18:01.400Z,0.00
2018-12-12T01:19:01.413Z,0.00
2018-12-12T01:20:01.426Z,0.00
2018-12-12T01:21:01.428Z,0.00
2018-12-12T01:22:01.444Z,0.00
2018-12-12T01:23:01.455Z,0.00
2018-12-12T01:24:01.471Z,0.00
2018-12-12T01:25:01.485Z,0.00
2018-12-12T01:26:01.497Z,0.00
2018-12-12T01:27:01.510Z,0.00
2018-12-12T01:28:01.511Z,0.00
2018-12-12T01:29:01.530Z,0.00
2018-12-12T01:30:01.538Z,0.00
2018-12-12T01:31:01.555Z,0.00
2018-12-12T01:32:01.565Z,0.00
2018-12-12T01:33:01.578Z,0.00
2018-12-12T01:34:01.591Z,0.00
2018-12-12T01:35:01.592Z,0.00
2018-12-12T01:36:01.607Z,0.00
2018-12-12T01:37:01.620Z,0.00
2018-12-12T01:38:01.638Z,0.00
2018-12-12T01:39:01.647Z,0.00
2018-12-12T01:40:01.664Z,0.00
2018-12-12T01:41:01.679Z,0.00
2018-12-12T01:42:01.676Z,0.00
2018-12-12T01:43:01.696Z,0.00
2018-12-12T01:44:01.703Z,0.00
2018-12-12T01:45:01.718Z,0.00
2018-12-12T01:46:01.741Z,0.00
2018-12-12T01:47:01.743Z,0.00
2018-12-12T01:48:01.745Z,0.00
2018-12-12T01:49:01.757Z,0.00
2018-12-12T01:50:01.787Z,0.00
2018-12-12T01:51:01.788Z,0.00
2018-12-12T01:52:01.828Z,0.00
2018-12-12T01:53:01.811Z,0.00
2018-12-12T01:54:01.826Z,0.00
2018-12-12T01:55:01.830Z,0.00
2018-12-12T01:56:01.841Z,0.00
2018-12-12T01:57:01.856Z,0.00
2018-12-12T01:58:01.867Z,0.00
2018-12-12T01:59:01.884Z,0.00
2018-12-12T02:00:01.903Z,0.00
2018-12-12T02:01:01.908Z,0.00
2018-12-12T02:02:01.909Z,0.00
2018-12-12T02:03:01.926Z,0.00
2018-12-12T02:04:01.936Z,0.00
2018-12-12T02:05:01.948Z,0.00
2018-12-12T02:06:01.966Z,0.00
2018-12-12T02:07:01.977Z,0.00
2018-12-12T02:08:02.052Z,0.00
2018-12-12T02:09:01.998Z,0.00
2018-12-12T02:10:02.004Z,0.00
2018-12-12T02:11:02.019Z,0.00
2018-12-12T02:12:02.031Z,0.00
2018-12-12T02:13:02.045Z,0.00
2018-12-12T02:14:02.058Z,0.00
2018-12-12T02:15:02.072Z,0.00
2018-12-12T02:16:02.086Z,0.00
2018-12-12T02:17:02.086Z,0.00
2018-12-12T02:18:02.104Z,0.00
2018-12-12T02:19:02.114Z,0.00
2018-12-12T02:20:02.130Z,0.00
2018-12-12T02:21:02.141Z,0.00
2018-12-12T02:22:02.155Z,0.00
2018-12-12T02:23:02.168Z,0.00
2018-12-12T02:24:02.169Z,0.00
2018-12-12T02:25:02.183Z,0.00
2018-12-12T02:26:02.215Z,0.00
2018-12-12T02:27:02.212Z,0.00
2018-12-12T02:28:02.223Z,0.00
2018-12-12T02:29:02.237Z,0.00
2018-12-12T02:30:02.251Z,0.00
2018-12-12T02:31:02.272Z,0.00
2018-12-12T02:32:02.265Z,0.00
2018-12-12T02:33:02.278Z,0.00
2018-12-12T02:34:02.293Z,0.00
2018-12-12T02:35:02.306Z,0.00
2018-12-12T02:36:02.321Z,0.00
2018-12-12T02:37:02.332Z,0.00
2018-12-12T02:38:02.347Z,0.00
2018-12-12T02:39:02.361Z,0.00
2018-12-12T02:40:02.364Z,0.00
2018-12-12T02:41:02.375Z,0.00
2018-12-12T02:42:02.388Z,0.00
2018-12-12T02:43:02.402Z,0.00
2018-12-12T02:44:02.415Z,0.00
2018-12-12T02:45:02.433Z,0.00
2018-12-12T02:46:02.464Z,0.00
2018-12-12T02:47:02.455Z,0.00
2018-12-12T02:48:02.456Z,0.00
2018-12-12T02:49:02.473Z,0.00
2018-12-12T02:50:02.484Z,0.00
2018-12-12T02:51:02.498Z,0.00
2018-12-12T02:52:02.510Z,0.00
2018-12-12T02:53:02.523Z,0.00
2018-12-12T02:54:02.548Z,0.00
2018-12-12T02:55:02.550Z,0.00
2018-12-12T02:56:02.552Z,0.00
2018-12-12T02:57:02.565Z,0.00
2018-12-12T02:58:02.580Z,0.00
2018-12-12T02:59:02.593Z,0.00
2018-12-12T03:00:02.605Z,0.00
2018-12-12T03:01:02.620Z,0.00
2018-12-12T03:02:02.632Z,0.00
2018-12-12T03:03:02.646Z,0.00
2018-12-12T03:04:02.653Z,0.00
2018-12-12T03:05:02.661Z,0.00
2018-12-12T03:06:02.674Z,0.00
2018-12-12T03:07:02.687Z,0.00
2018-12-12T03:08:02.707Z,0.00
2018-12-12T03:09:02.715Z,0.00
2018-12-12T03:10:02.729Z,0.00
2018-12-12T03:11:02.747Z,0.00
2018-12-12T03:12:02.745Z,0.00
2018-12-12T03:13:02.761Z,0.00
2018-12-12T03:14:02.770Z,0.00
2018-12-12T03:15:02.786Z,0.00
2018-12-12T03:16:02.797Z,0.00
2018-12-12T03:17:02.813Z,0.00
2018-12-12T03:18:02.831Z,0.00
2018-12-12T03:19:02.838Z,0.00
2018-12-12T03:20:02.852Z,0.00
2018-12-12T03:21:02.866Z,0.00
2018-12-12T03:22:02.869Z,0.00
2018-12-12T03:23:02.882Z,0.00
2018-12-12T03:24:02.895Z,0.00
2018-12-12T03:25:02.914Z,0.00
2018-12-12T03:26:02.930Z,0.00
2018-12-12T03:27:02.944Z,0.00
2018-12-12T03:28:02.934Z,0.00
2018-12-12T03:29:02.968Z,0.00
2018-12-12T03:30:02.981Z,0.00
2018-12-12T03:31:03.010Z,0.00
2018-12-12T03:32:02.990Z,0.00
2018-12-12T03:33:03.004Z,0.00
2018-12-12T03:34:03.021Z,0.00
2018-12-12T03:35:03.033Z,0.00
2018-12-12T03:36:03.042Z,0.00
2018-12-12T03:37:03.046Z,0.00
2018-12-12T03:38:03.057Z,0.00
2018-12-12T03:39:03.070Z,0.00
2018-12-12T03:40:03.086Z,0.00
2018-12-12T03:41:03.111Z,0.00
2018-12-12T03:42:03.114Z,0.00
2018-12-12T03:43:03.126Z,0.00
2018-12-12T03:44:03.126Z,0.00
2018-12-12T03:45:03.145Z,0.00
2018-12-12T03:46:03.153Z,0.00
2018-12-12T03:47:03.170Z,0.00
2018-12-12T03:48:03.180Z,0.00
2018-12-12T03:49:03.195Z,0.00
2018-12-12T03:50:03.222Z,0.00
2018-12-12T03:51:03.222Z,0.00
2018-12-12T03:52:03.222Z,0.00
2018-12-12T03:53:03.238Z,0.00
2018-12-12T03:54:03.250Z,0.00
2018-12-12T03:55:03.262Z,0.00
2018-12-12T03:56:03.302Z,0.00
2018-12-12T03:57:03.290Z,0.00
2018-12-12T03:58:03.304Z,0.00
2018-12-12T03:59:03.319Z,0.00
2018-12-12T04:00:03.330Z,0.00
2018-12-12T04:01:03.332Z,0.00
2018-12-12T04:02:03.345Z,0.00
2018-12-12T04:03:03.360Z,0.00
2018-12-12T04:04:03.373Z,0.00
2018-12-12T04:05:03.385Z,0.00
2018-12-12T04:06:03.400Z,0.00
2018-12-12T04:07:03.418Z,0.00
2018-12-12T04:08:03.426Z,0.00
2018-12-12T04:09:03.428Z,0.00
2018-12-12T04:10:03.441Z,0.00
2018-12-12T04:11:03.454Z,0.00
2018-12-12T04:12:03.469Z,0.00
2018-12-12T04:13:03.481Z,0.00
2018-12-12T04:14:03.494Z,0.00
2018-12-12T04:15:03.510Z,0.00
2018-12-12T04:16:03.524Z,0.00
2018-12-12T04:17:03.534Z,0.00
2018-12-12T04:18:03.538Z,0.00
2018-12-12T04:19:03.550Z,0.00
2018-12-12T04:20:03.577Z,0.00
2018-12-12T04:21:03.576Z,0.00
2018-12-12T04:22:03.591Z,0.00
2018-12-12T04:23:04.685Z,0.00
2018-12-12T04:24:03.617Z,0.00
2018-12-12T04:25:03.632Z,0.00
2018-12-12T04:26:03.644Z,0.00
2018-12-12T04:27:03.645Z,0.00
2018-12-12T04:28:03.670Z,0.00
2018-12-12T04:29:03.671Z,0.00
2018-12-12T04:30:03.686Z,0.00
2018-12-12T04:31:03.699Z,0.00
2018-12-12T04:32:03.713Z,0.00
2018-12-12T04:33:03.726Z,0.00
2018-12-12T04:34:03.750Z,0.00
2018-12-12T04:35:03.753Z,0.00
2018-12-12T04:36:03.758Z,0.00
2018-12-12T04:37:03.768Z,0.00
2018-12-12T04:38:03.787Z,0.00
2018-12-12T04:39:03.796Z,0.00
2018-12-12T04:40:03.807Z,0.00
2018-12-12T04:41:03.824Z,0.00
2018-12-12T04:42:03.835Z,0.00
2018-12-12T04:43:03.849Z,0.00
2018-12-12T04:44:03.863Z,0.00
2018-12-12T04:45:03.864Z,0.00
2018-12-12T04:46:03.882Z,0.00
2018-12-12T04:47:03.891Z,0.00
2018-12-12T04:48:03.904Z,0.00
2018-12-12T04:49:03.917Z,0.00
2018-12-12T04:50:03.933Z,0.00
2018-12-12T04:51:03.944Z,0.00
2018-12-12T04:52:03.959Z,0.00
2018-12-12T04:53:03.972Z,0.00
2018-12-12T04:54:03.985Z,0.00
2018-12-12T04:55:03.987Z,0.00
2018-12-12T04:56:03.999Z,0.00
2018-12-12T04:57:04.013Z,0.00
2018-12-12T04:58:04.026Z,0.00
2018-12-12T04:59:04.040Z,0.00
2018-12-12T05:00:04.053Z,0.00
2018-12-12T05:01:04.070Z,0.00
2018-12-12T05:02:04.081Z,0.00
2018-12-12T05:03:04.082Z,0.00
2018-12-12T05:04:04.096Z,0.00
2018-12-12T05:05:04.109Z,0.00
2018-12-12T05:06:04.123Z,0.00
2018-12-12T05:07:04.136Z,0.00
2018-12-12T05:08:04.149Z,0.00
2018-12-12T05:09:04.171Z,0.00
2018-12-12T05:10:04.178Z,0.00
2018-12-12T05:11:04.191Z,0.00
2018-12-12T05:12:04.191Z,0.00
2018-12-12T05:13:04.206Z,0.00
2018-12-12T05:14:04.231Z,0.00
2018-12-12T05:15:04.232Z,0.00
2018-12-12T05:16:04.245Z,0.00
2018-12-12T05:17:04.259Z,0.00
2018-12-12T05:18:04.276Z,0.00
2018-12-12T05:19:04.286Z,0.00
2018-12-12T05:20:04.288Z,0.00
2018-12-12T05:21:04.301Z,0.00
2018-12-12T05:22:04.315Z,0.00
2018-12-12T05:23:04.327Z,0.00
2018-12-12T05:24:04.342Z,0.00
2018-12-12T05:25:04.355Z,0.00
2018-12-12T05:26:04.368Z,0.00
2018-12-12T05:27:04.382Z,0.00
2018-12-12T05:28:04.399Z,0.00
2018-12-12T05:29:04.398Z,0.00
2018-12-12T05:30:04.409Z,0.00
2018-12-12T05:31:04.424Z,0.00
2018-12-12T05:32:04.437Z,0.00
2018-12-12T05:33:04.450Z,0.00
2018-12-12T05:34:04.467Z,0.00
2018-12-12T05:35:04.478Z,0.00
2018-12-12T05:36:04.493Z,0.00
2018-12-12T05:37:04.506Z,0.00
2018-12-12T05:38:04.506Z,0.00
2018-12-12T05:39:04.519Z,0.00
2018-12-12T05:40:04.537Z,0.00
2018-12-12T05:41:04.548Z,0.00
2018-12-12T05:42:04.560Z,0.00
2018-12-12T05:43:04.573Z,0.00
2018-12-12T05:44:04.587Z,0.00
2018-12-12T05:45:04.600Z,0.00
2018-12-12T05:46:04.601Z,0.00
2018-12-12T05:47:04.617Z,0.00
2018-12-12T05:48:04.628Z,0.00
2018-12-12T05:49:04.642Z,0.00
2018-12-12T05:50:04.655Z,0.00
2018-12-12T05:51:04.669Z,0.00
2018-12-12T05:52:04.696Z,0.00
2018-12-12T05:53:04.697Z,0.00
2018-12-12T05:54:04.697Z,0.00
2018-12-12T05:55:04.710Z,0.00
2018-12-12T05:56:04.732Z,0.00
2018-12-12T05:57:04.738Z,0.00
2018-12-12T05:58:04.752Z,0.00
2018-12-12T05:59:04.768Z,0.00
2018-12-12T06:00:04.768Z,0.00
2018-12-12T06:01:04.782Z,0.00
2018-12-12T06:02:04.793Z,0.00
2018-12-12T06:03:04.807Z,0.00
2018-12-12T06:04:04.820Z,0.00
2018-12-12T06:05:04.834Z,0.00
2018-12-12T06:06:04.848Z,0.00
2018-12-12T06:07:04.850Z,0.00
2018-12-12T06:08:04.862Z,0.00
2018-12-12T06:09:04.875Z,0.00
2018-12-12T06:10:04.891Z,0.00
2018-12-12T06:11:04.905Z,0.00
2018-12-12T06:12:04.919Z,0.00
2018-12-12T06:13:04.932Z,0.00
2018-12-12T06:14:04.946Z,0.00
2018-12-12T06:15:04.945Z,0.00
2018-12-12T06:16:04.964Z,0.00
2018-12-12T06:17:04.974Z,0.00
2018-12-12T06:18:04.985Z,0.00
2018-12-12T06:19:05.003Z,0.00
2018-12-12T06:20:05.012Z,0.00
2018-12-12T06:21:05.026Z,0.00
2018-12-12T06:22:05.039Z,0.00
2018-12-12T06:23:05.044Z,0.00
2018-12-12T06:24:05.054Z,0.00
2018-12-12T06:25:05.072Z,0.00
2018-12-12T06:26:05.081Z,0.00
2018-12-12T06:27:05.107Z,0.00
2018-12-12T06:28:05.108Z,4.00
2018-12-12T06:29:05.121Z,4.00
2018-12-12T06:30:05.123Z,0.00
2018-12-12T06:31:05.138Z,0.00
2018-12-12T06:32:05.163Z,4.00
2018-12-12T06:33:05.164Z,4.00
2018-12-12T06:34:05.176Z,0.00
2018-12-12T06:35:05.192Z,4.00
2018-12-12T06:36:05.203Z,4.00
2018-12-12T06:37:05.205Z,8.00
2018-12-12T06:38:05.219Z,8.00
2018-12-12T06:39:05.233Z,8.00
2018-12-12T06:40:05.247Z,8.00
2018-12-12T06:41:05.260Z,8.00
2018-12-12T06:42:05.272Z,12.00
2018-12-12T06:43:05.285Z,12.00
2018-12-12T06:44:05.287Z,16.00
2018-12-12T06:45:05.301Z,16.00
2018-12-12T06:46:05.313Z,20.00
2018-12-12T06:47:05.328Z,20.00
2018-12-12T06:48:05.342Z,28.00
2018-12-12T06:49:05.355Z,28.00
2018-12-12T06:50:05.367Z,32.00
2018-12-12T06:51:05.385Z,36.00
2018-12-12T06:52:05.383Z,40.00
2018-12-12T06:53:05.398Z,44.00
2018-12-12T06:54:05.410Z,52.00
2018-12-12T06:55:05.424Z,56.00
2018-12-12T06:56:05.437Z,60.00
2018-12-12T06:57:05.449Z,64.00
2018-12-12T06:58:05.466Z,68.00
2018-12-12T06:59:05.467Z,72.00
2018-12-12T07:00:05.478Z,80.00
2018-12-12T07:01:05.491Z,88.00
2018-12-12T07:02:05.505Z,96.00
2018-12-12T07:03:05.519Z,104.00
2018-12-12T07:04:05.532Z,116.00
2018-12-12T07:05:05.548Z,112.00
2018-12-12T07:06:05.547Z,120.00
2018-12-12T07:07:05.565Z,148.00
2018-12-12T07:08:05.574Z,176.00
2018-12-12T07:09:05.588Z,176.00
2018-12-12T07:10:05.602Z,188.00
2018-12-12T07:11:05.627Z,200.00
2018-12-12T07:12:05.628Z,204.00
2018-12-12T07:13:05.630Z,232.00
2018-12-12T07:14:05.645Z,248.00
2018-12-12T07:15:05.657Z,260.00
2018-12-12T07:16:05.675Z,284.00
2018-12-12T07:17:05.683Z,316.00
2018-12-12T07:18:05.697Z,356.00
2018-12-12T07:19:05.698Z,380.00
2018-12-12T07:20:05.736Z,396.00
2018-12-12T07:21:05.724Z,412.00
2018-12-12T07:22:05.739Z,448.00
2018-12-12T07:23:05.751Z,476.00
2018-12-12T07:24:05.765Z,520.00
2018-12-12T07:25:05.779Z,552.00
2018-12-12T07:26:05.780Z,604.00
2018-12-12T07:27:05.795Z,652.00
2018-12-12T07:28:05.810Z,664.00
2018-12-12T07:29:05.821Z,668.00
2018-12-12T07:30:05.833Z,644.00
2018-12-12T07:31:05.850Z,640.00
2018-12-12T07:32:05.849Z,652.00
2018-12-12T07:33:05.866Z,676.00
2018-12-12T07:34:05.876Z,704.00
2018-12-12T07:35:05.888Z,736.00
2018-12-12T07:36:05.903Z,760.00
2018-12-12T07:37:05.919Z,820.00
2018-12-12T07:38:05.932Z,856.00
2018-12-12T07:39:05.932Z,876.00
2018-12-12T07:40:05.947Z,904.00
2018-12-12T07:41:05.962Z,944.00
2018-12-12T07:42:05.971Z,972.00
2018-12-12T07:43:05.988Z,992.00
2018-12-12T07:44:05.998Z,1012.00
2018-12-12T07:45:06.013Z,1016.00
2018-12-12T07:46:06.014Z,1020.00
2018-12-12T07:47:06.028Z,1032.00
2018-12-12T07:48:06.045Z,1052.00
2018-12-12T07:49:06.054Z,1088.00
2018-12-12T07:50:06.070Z,1132.00
2018-12-12T07:51:06.094Z,1172.00
2018-12-12T07:52:06.096Z,1208.00
2018-12-12T07:53:06.096Z,1240.00
2018-12-12T07:54:06.108Z,1284.00
2018-12-12T07:55:06.123Z,1324.00
2018-12-12T07:56:06.136Z,1360.00
2018-12-12T07:57:06.151Z,1420.00
2018-12-12T07:58:06.163Z,1488.00
2018-12-12T07:59:06.178Z,1544.00
2018-12-12T08:00:06.179Z,1552.00
2018-12-12T08:01:06.196Z,1564.00
2018-12-12T08:02:06.205Z,1592.00
2018-12-12T08:03:06.666Z,1632.00
2018-12-12T08:04:06.232Z,1644.00
2018-12-12T08:05:06.246Z,1664.00
2018-12-12T08:06:06.261Z,1704.00
2018-12-12T08:07:06.263Z,1724.00
2018-12-12T08:08:06.274Z,1692.00
2018-12-12T08:09:06.287Z,1460.00
2018-12-12T08:10:06.303Z,1388.00
2018-12-12T08:11:06.315Z,1412.00
2018-12-12T08:12:06.327Z,1428.00
2018-12-12T08:13:06.342Z,1404.00
2018-12-12T08:14:06.354Z,1412.00
2018-12-12T08:15:06.356Z,1436.00
2018-12-12T08:16:06.370Z,1360.00
2018-12-12T08:17:06.390Z,1540.00
2018-12-12T08:18:06.397Z,1712.00
2018-12-12T08:19:06.411Z,1772.00
2018-12-12T08:20:06.424Z,1524.00
2018-12-12T08:21:06.437Z,1604.00
2018-12-12T08:22:06.451Z,1660.00
2018-12-12T08:23:06.452Z,1600.00
2018-12-12T08:24:06.464Z,1616.00
2018-12-12T08:25:06.480Z,1644.00
2018-12-12T08:26:06.494Z,1632.00
2018-12-12T08:27:06.506Z,1732.00
2018-12-12T08:28:06.519Z,1944.00
2018-12-12T08:29:06.533Z,2048.00
2018-12-12T08:30:06.545Z,1756.00
2018-12-12T08:31:06.559Z,1896.00
2018-12-12T08:32:06.574Z,2060.00
2018-12-12T08:33:11.153Z,2264.00
2018-12-12T08:34:06.589Z,2600.00
2018-12-12T08:35:06.602Z,2548.00
2018-12-12T08:36:06.616Z,2604.00
2018-12-12T08:37:06.627Z,2724.00
2018-12-12T08:38:06.642Z,2772.00
2018-12-12T08:39:06.656Z,2784.00
2018-12-12T08:40:06.669Z,2680.00
2018-12-12T08:41:06.685Z,2616.00
2018-12-12T08:42:06.696Z,2576.00
2018-12-12T08:43:06.709Z,2696.00
2018-12-12T08:44:06.714Z,2996.00
2018-12-12T08:45:06.726Z,2776.00
2018-12-12T08:46:06.751Z,2820.00
2018-12-12T08:47:06.752Z,2740.00
2018-12-12T08:48:06.764Z,2740.00
2018-12-12T08:49:08.163Z,2592.00
2018-12-12T08:50:06.804Z,2672.00
2018-12-12T08:51:06.806Z,2772.00
2018-12-12T08:52:06.819Z,2808.00
2018-12-12T08:53:06.833Z,2820.00
2018-12-12T08:54:06.846Z,2772.00
2018-12-12T08:55:06.859Z,2496.00
2018-12-12T08:56:06.873Z,2480.00
2018-12-12T08:57:06.887Z,2548.00
2018-12-12T08:58:06.899Z,2648.00
2018-12-12T08:59:06.901Z,2908.00
2018-12-12T09:00:06.917Z,2892.00
2018-12-12T09:01:06.928Z,2872.00
2018-12-12T09:02:06.942Z,2684.00
2018-12-12T09:03:06.956Z,2464.00
2018-12-12T09:04:06.969Z,2540.00
2018-12-12T09:05:06.982Z,2616.00
2018-12-12T09:06:06.996Z,2152.00
2018-12-12T09:07:07.437Z,1828.00
2018-12-12T09:08:07.023Z,1900.00
2018-12-12T09:09:07.036Z,2172.00
2018-12-12T09:10:07.050Z,2508.00
2018-12-12T09:11:07.065Z,2668.00
2018-12-12T09:12:07.078Z,2524.00
2018-12-12T09:13:07.091Z,2780.00
2018-12-12T09:14:07.093Z,2628.00
2018-12-12T09:15:07.108Z,2936.00
2018-12-12T09:16:07.118Z,3056.00
2018-12-12T09:17:09.758Z,3176.00
2018-12-12T09:18:07.160Z,3288.00
2018-12-12T09:19:07.161Z,3200.00
2018-12-12T09:20:07.174Z,3564.00
2018-12-12T09:21:07.187Z,3688.00
2018-12-12T09:22:07.200Z,3644.00
2018-12-12T09:23:07.215Z,3856.00
2018-12-12T09:24:07.227Z,3860.00
2018-12-12T09:25:07.243Z,4036.00
2018-12-12T09:26:07.253Z,4528.00
2018-12-12T09:27:07.269Z,4436.00
2018-12-12T09:28:07.281Z,4680.00
2018-12-12T09:29:07.296Z,4244.00
2018-12-12T09:30:07.308Z,4424.00
2018-12-12T09:31:07.309Z,4992.00
2018-12-12T09:32:07.324Z,5116.00
2018-12-12T09:33:07.337Z,5084.00
2018-12-12T09:34:07.351Z,4756.00
2018-12-12T09:35:07.363Z,4804.00
2018-12-12T09:36:07.377Z,4712.00
2018-12-12T09:37:07.392Z,4416.00
2018-12-12T09:38:07.405Z,3996.00
2018-12-12T09:39:07.704Z,4048.00
2018-12-12T09:40:07.434Z,4016.00
2018-12-12T09:41:07.444Z,4020.00
2018-12-12T09:42:07.458Z,4308.00
2018-12-12T09:43:07.473Z,4000.00
2018-12-12T09:44:07.486Z,4220.00
2018-12-12T09:45:07.499Z,4308.00
2018-12-12T09:46:07.512Z,4220.00
2018-12-12T09:47:07.525Z,4028.00
2018-12-12T09:48:07.539Z,4416.00
2018-12-12T09:49:07.552Z,4636.00
2018-12-12T09:50:07.567Z,4504.00
2018-12-12T09:51:07.644Z,4492.00
2018-12-12T09:52:07.593Z,4812.00
2018-12-12T09:53:07.606Z,5428.00
2018-12-12T09:54:07.621Z,5616.00
2018-12-12T09:55:07.633Z,5564.00
2018-12-12T09:56:07.648Z,5356.00
2018-12-12T09:57:07.660Z,5848.00
2018-12-12T09:58:07.676Z,6388.00
2018-12-12T09:59:07.687Z,6388.00
2018-12-12T10:00:07.693Z,6144.00
2018-12-12T10:01:07.702Z,5720.00
2018-12-12T10:02:07.718Z,5484.00
2018-12-12T10:03:07.731Z,5632.00
2018-12-12T10:04:07.742Z,5592.00
2018-12-12T10:05:07.760Z,4896.00
2018-12-12T10:06:07.771Z,4708.00
2018-12-12T10:07:07.784Z,5412.00
2018-12-12T10:08:07.797Z,5272.00
2018-12-12T10:09:07.811Z,5048.00
2018-12-12T10:10:07.823Z,4400.00
2018-12-12T10:11:07.838Z,4448.00
2018-12-12T10:12:07.851Z,4900.00
2018-12-12T10:13:07.866Z,4856.00
2018-12-12T10:14:07.878Z,4496.00
2018-12-12T10:15:07.892Z,4512.00
2018-12-12T10:16:07.905Z,4676.00
2018-12-12T10:17:07.919Z,4968.00
2018-12-12T10:18:07.931Z,5452.00
2018-12-12T10:19:07.946Z,5332.00
2018-12-12T10:20:07.982Z,5068.00
2018-12-12T10:21:07.973Z,4512.00
2018-12-12T10:22:07.988Z,4232.00
2018-12-12T10:23:08.001Z,4256.00
2018-12-12T10:24:08.013Z,4436.00
2018-12-12T10:25:08.026Z,4272.00
2018-12-12T10:26:08.040Z,3848.00
2018-12-12T10:27:08.059Z,3780.00
2018-12-12T10:28:08.070Z,4260.00
2018-12-12T10:29:08.082Z,4936.00
2018-12-12T10:30:08.094Z,6056.00
2018-12-12T10:31:08.109Z,6528.00
2018-12-12T10:32:08.137Z,6768.00
2018-12-12T10:33:08.142Z,7272.00
2018-12-12T10:34:08.162Z,7688.00
2018-12-12T10:35:08.163Z,7836.00
2018-12-12T10:36:08.190Z,7852.00
2018-12-12T10:37:08.193Z,7900.00
2018-12-12T10:38:08.202Z,8500.00
2018-12-12T10:39:08.217Z,8888.00
2018-12-12T10:40:08.231Z,8820.00
2018-12-12T10:41:08.246Z,8616.00
2018-12-12T10:42:08.258Z,8196.00
2018-12-12T10:43:08.273Z,7892.00
2018-12-12T10:44:08.284Z,7228.00
2018-12-12T10:45:08.298Z,6996.00
2018-12-12T10:46:08.311Z,5556.00
2018-12-12T10:47:08.326Z,5852.00
2018-12-12T10:48:08.390Z,6572.00
2018-12-12T10:49:08.353Z,6532.00
2018-12-12T10:50:08.365Z,6296.00
2018-12-12T10:51:08.381Z,5292.00
2018-12-12T10:52:08.392Z,4420.00
2018-12-12T10:53:09.654Z,4032.00
2018-12-12T10:54:08.419Z,5008.00
2018-12-12T10:55:08.434Z,5788.00
2018-12-12T10:56:08.447Z,5332.00
2018-12-12T10:57:08.461Z,5988.00
2018-12-12T10:58:08.475Z,7000.00
2018-12-12T10:59:08.487Z,6480.00
2018-12-12T11:00:12.678Z,6164.00
2018-12-12T11:01:08.528Z,7400.00
2018-12-12T11:02:08.541Z,6256.00
2018-12-12T11:03:08.554Z,6452.00
2018-12-12T11:04:08.567Z,5408.00
2018-12-12T11:05:08.581Z,4916.00
2018-12-12T11:06:08.595Z,5476.00
2018-12-12T11:07:08.610Z,6736.00
2018-12-12T11:08:08.622Z,6396.00
2018-12-12T11:09:08.638Z,6280.00
2018-12-12T11:10:08.649Z,5208.00
2018-12-12T11:11:08.662Z,4568.00
2018-12-12T11:12:08.676Z,4776.00
2018-12-12T11:13:08.689Z,4344.00
2018-12-12T11:14:08.708Z,3988.00
2018-12-12T11:15:08.716Z,4260.00
2018-12-12T11:16:08.730Z,4048.00
2018-12-12T11:17:08.742Z,3776.00
2018-12-12T11:18:08.757Z,4328.00
2018-12-12T11:19:08.770Z,5168.00
2018-12-12T11:20:08.784Z,6364.00
2018-12-12T11:21:08.798Z,6464.00
2018-12-12T11:22:08.812Z,6348.00
2018-12-12T11:23:08.827Z,6056.00
2018-12-12T11:24:08.839Z,5892.00
2018-12-12T11:25:08.852Z,6872.00
2018-12-12T11:26:08.865Z,6988.00
2018-12-12T11:27:08.878Z,7292.00
2018-12-12T11:28:08.896Z,7444.00
2018-12-12T11:29:08.908Z,7240.00
2018-12-12T11:30:08.920Z,6932.00
2018-12-12T11:31:08.933Z,7148.00
2018-12-12T11:32:08.949Z,6828.00
2018-12-12T11:33:08.978Z,5308.00
2018-12-12T11:34:08.987Z,4404.00
2018-12-12T11:35:08.999Z,4260.00
2018-12-12T11:36:09.015Z,4192.00
2018-12-12T11:37:09.027Z,4180.00
2018-12-12T11:38:09.043Z,4352.00
2018-12-12T11:39:09.056Z,4796.00
2018-12-12T11:40:09.066Z,5488.00
2018-12-12T11:41:09.081Z,5760.00
2018-12-12T11:42:09.094Z,5476.00
2018-12-12T11:43:09.108Z,5436.00
2018-12-12T11:44:09.120Z,5432.00
2018-12-12T11:45:09.135Z,5056.00
2018-12-12T11:46:09.148Z,4236.00
2018-12-12T11:47:09.162Z,3648.00
2018-12-12T11:48:09.175Z,3568.00
2018-12-12T11:49:09.188Z,3512.00
2018-12-12T11:50:09.202Z,3336.00
2018-12-12T11:51:09.216Z,3140.00
2018-12-12T11:52:09.229Z,3096.00
2018-12-12T11:53:09.244Z,3504.00
2018-12-12T11:54:09.256Z,3900.00
2018-12-12T11:55:09.271Z,4192.00
2018-12-12T11:56:09.283Z,4464.00
2018-12-12T11:57:09.300Z,4668.00
2018-12-12T11:58:09.311Z,4640.00
2018-12-12T11:59:09.324Z,4392.00
2018-12-12T12:00:09.338Z,4136.00
2018-12-12T12:01:09.363Z,4216.00
2018-12-12T12:02:09.378Z,4100.00
2018-12-12T12:03:09.391Z,3940.00
2018-12-12T12:04:09.404Z,4096.00
2018-12-12T12:05:09.418Z,4596.00
2018-12-12T12:06:09.438Z,5312.00
2018-12-12T12:07:09.444Z,5932.00
2018-12-12T12:08:09.459Z,6348.00
2018-12-12T12:09:09.474Z,6452.00
2018-12-12T12:10:09.489Z,6304.00
2018-12-12T12:11:09.498Z,5660.00
2018-12-12T12:12:09.514Z,4788.00
2018-12-12T12:13:09.527Z,4352.00
2018-12-12T12:14:09.542Z,4496.00
2018-12-12T12:15:09.553Z,4688.00
2018-12-12T12:16:09.568Z,4532.00
2018-12-12T12:17:09.580Z,4356.00
2018-12-12T12:18:09.594Z,4348.00
2018-12-12T12:19:09.607Z,4436.00
2018-12-12T12:20:09.621Z,4504.00
2018-12-12T12:21:09.634Z,4636.00
2018-12-12T12:22:09.649Z,4404.00
2018-12-12T12:23:09.662Z,4296.00
2018-12-12T12:24:09.675Z,4632.00
2018-12-12T12:25:09.689Z,4716.00
2018-12-12T12:26:09.714Z,4500.00
2018-12-12T12:27:09.716Z,4164.00
2018-12-12T12:28:09.742Z,3904.00
2018-12-12T12:29:09.755Z,4216.00
2018-12-12T12:30:09.768Z,3620.00
2018-12-12T12:31:09.785Z,3644.00
2018-12-12T12:32:09.796Z,3988.00
2018-12-12T12:33:09.810Z,4404.00
2018-12-12T12:34:09.822Z,4368.00
2018-12-12T12:35:09.837Z,4656.00
2018-12-12T12:36:09.852Z,4952.00
2018-12-12T12:37:09.866Z,5208.00
2018-12-12T12:38:09.877Z,5148.00
2018-12-12T12:39:09.891Z,4796.00
2018-12-12T12:40:09.904Z,4340.00
2018-12-12T12:41:09.917Z,3896.00
2018-12-12T12:42:09.930Z,3564.00
2018-12-12T12:43:09.947Z,3244.00
2018-12-12T12:44:09.958Z,2996.00